createdAt,value
2023-05-19T00:10:01.718Z,8.29
2023-05-19T00:20:11.088Z,8.39
2023-05-19T00:30:15.761Z,8.33
2023-05-19T00:40:19.281Z,8.26
2023-05-19T00:50:23.820Z,8.20
2023-05-19T01:00:29.412Z,8.25
2023-05-19T01:10:33.636Z,8.23
2023-05-19T01:20:52.273Z,8.17
2023-05-19T01:30:59.731Z,8.13
2023-05-19T01:41:03.333Z,8.05
2023-05-19T01:51:07.057Z,8.03
2023-05-19T02:01:11.644Z,7.90
2023-05-19T02:11:19.278Z,7.95
2023-05-19T02:21:23.292Z,8.00
2023-05-19T02:31:27.036Z,8.05
2023-05-19T02:41:31.054Z,8.10
2023-05-19T02:51:34.831Z,8.07
2023-05-19T03:01:39.925Z,8.12
2023-05-19T03:11:44.005Z,8.10
2023-05-19T03:21:48.274Z,8.04
2023-05-19T03:31:52.275Z,8.07
2023-05-19T03:41:56.198Z,8.11
2023-05-19T03:52:03.305Z,8.21
2023-05-19T04:02:08.264Z,8.26
2023-05-19T04:12:15.683Z,8.44
2023-05-19T04:22:23.307Z,8.64
2023-05-19T04:32:26.557Z,8.81
2023-05-19T04:42:30.229Z,8.90
2023-05-19T04:52:34.019Z,9.06
2023-05-19T05:02:38.432Z,9.11
2023-05-19T05:12:47.512Z,9.21
2023-05-19T05:22:52.354Z,9.23
2023-05-19T05:32:56.283Z,9.36
2023-05-19T05:43:00.178Z,9.48
2023-05-19T05:53:06.036Z,9.61
2023-05-19T06:03:10.341Z,9.69
2023-05-19T06:13:15.815Z,9.73
2023-05-19T06:23:19.551Z,10.02
2023-05-19T06:33:24.663Z,10.06
2023-05-19T06:43:29.837Z,10.07
2023-05-19T06:53:34.258Z,10.27
2023-05-19T07:03:38.151Z,10.32
2023-05-19T07:13:42.108Z,10.38
2023-05-19T07:23:45.695Z,10.47
2023-05-19T07:33:49.553Z,10.47
2023-05-19T07:43:53.504Z,10.68
2023-05-19T07:53:57.872Z,10.86
2023-05-19T08:04:02.103Z,10.95
2023-05-19T08:14:05.905Z,11.22
2023-05-19T08:24:09.846Z,11.27
2023-05-19T08:34:13.446Z,11.37
2023-05-19T08:44:19.040Z,11.32
2023-05-19T08:54:29.875Z,11.49
2023-05-19T09:04:34.571Z,11.65
2023-05-19T09:14:41.897Z,11.64
2023-05-19T09:24:46.934Z,11.73
2023-05-19T09:34:50.538Z,11.78
2023-05-19T09:45:00.282Z,11.83
2023-05-19T09:55:03.814Z,11.82
2023-05-19T10:05:08.031Z,11.74
2023-05-19T10:15:17.687Z,11.77
2023-05-19T10:25:25.065Z,11.93
2023-05-19T10:35:49.948Z,12.03
2023-05-19T10:45:55.088Z,11.87
2023-05-19T10:56:03.374Z,11.80
2023-05-19T11:06:24.930Z,11.94
2023-05-19T11:16:28.677Z,12.03
2023-05-19T11:26:42.506Z,12.11
2023-05-19T11:36:47.738Z,12.08
2023-05-19T11:46:51.607Z,12.09
2023-05-19T11:56:55.338Z,12.14
2023-05-19T12:06:59.351Z,12.22
2023-05-19T12:17:10.274Z,12.48
2023-05-19T12:27:22.844Z,12.74
2023-05-19T12:37:29.381Z,12.80
2023-05-19T12:47:34.763Z,12.56
2023-05-19T12:57:40.932Z,12.71
2023-05-19T13:07:53.757Z,12.76
2023-05-19T13:17:58.445Z,12.59
2023-05-19T13:28:04.981Z,12.65
2023-05-19T13:38:10.854Z,12.85
2023-05-19T13:48:15.385Z,12.83
2023-05-19T13:58:19.724Z,12.79
2023-05-19T14:08:23.349Z,12.80
2023-05-19T14:18:26.640Z,12.77
2023-05-19T14:28:30.417Z,12.62
2023-05-19T14:38:37.822Z,12.70
2023-05-19T14:48:41.444Z,12.72
2023-05-19T14:58:45.321Z,12.62
2023-05-19T15:08:49.386Z,12.55
2023-05-19T15:18:53.395Z,12.44
2023-05-19T15:28:57.317Z,12.43
2023-05-19T15:39:00.353Z,12.51
2023-05-19T15:49:04.442Z,12.49
2023-05-19T15:59:08.219Z,12.33
2023-05-19T16:09:12.346Z,12.15
2023-05-19T16:19:16.118Z,12.07
2023-05-19T16:29:20.368Z,12.10
2023-05-19T16:39:24.252Z,12.12
2023-05-19T16:49:28.295Z,12.07
2023-05-19T16:59:31.894Z,11.99
2023-05-19T17:09:35.495Z,11.92
2023-05-19T17:19:39.179Z,11.89
2023-05-19T17:29:42.816Z,11.81
2023-05-19T17:39:46.985Z,11.79
2023-05-19T17:49:50.700Z,11.74
2023-05-19T17:59:55.837Z,11.66
2023-05-19T18:10:00.106Z,11.61
2023-05-19T18:20:03.790Z,11.54
2023-05-19T18:30:08.362Z,11.51
2023-05-19T18:40:11.343Z,11.57
2023-05-19T18:50:15.995Z,11.54
2023-05-19T19:00:20.321Z,11.54
2023-05-19T19:10:24.021Z,11.60
2023-05-19T19:20:27.745Z,11.67
2023-05-19T19:30:35.125Z,11.63
2023-05-19T19:40:39.037Z,11.51
2023-05-19T19:50:42.974Z,11.47
2023-05-19T20:00:46.518Z,11.44
2023-05-19T20:10:50.587Z,11.49
2023-05-19T20:20:57.976Z,11.43
2023-05-19T20:31:01.902Z,11.39
2023-05-19T20:41:06.060Z,11.35
2023-05-19T20:51:09.595Z,11.34
2023-05-19T21:01:13.305Z,11.34
2023-05-19T21:11:17.778Z,11.33
2023-05-19T21:21:21.410Z,11.35
2023-05-19T21:31:25.087Z,11.39
2023-05-19T21:41:29.702Z,11.44
2023-05-19T21:51:33.898Z,11.40
2023-05-19T22:01:37.535Z,11.38
2023-05-19T22:11:41.347Z,11.41
2023-05-19T22:21:51.784Z,11.45
2023-05-19T22:31:57.593Z,11.41
2023-05-19T22:42:02.068Z,11.36
2023-05-19T22:52:07.410Z,11.39
2023-05-19T23:02:11.030Z,11.40
2023-05-19T23:12:16.034Z,11.36
2023-05-19T23:22:19.806Z,11.34
2023-05-19T23:32:23.614Z,11.30
2023-05-19T23:42:28.217Z,11.23
2023-05-19T23:52:32.203Z,11.18
